Gratz, Kentucky
Current Conditions -  °F | °C
As of 12:53 PM on Thursday 23 Oct 2014 (Local Time) from KFFT Reporting Station
Clear Clear  
Wind Chill: 57°   Ceiling: Unl
Heat Index: 57°   Visibility: 10mi
Dew Point: 41°   Wind: 6mph
Humidity: 55%   Direction: NA
Pressure: 30.21"   Gusts: NA
Location:  38.4804°N, 84.8067°W
Report Text: KFFT 231653Z AUTO VRB05KT 10SM CLR 14/05 A3021 RMK AO2 SLP232 T01390050
Loading
Personal Weather Stations






























Interactive Weather Map
Tropical Storm Tracking
New forecast layout! Learn more

10-Day Weather Forecast

Advertisements
Track Severe Weather on mobile